Time;durP1;ratioP1;P1;durP2;ratioP2;P2;SDS_P1;SDS_P2;PMS_P1;PMS_P2;Temp;Humidity;BMP_temperature;BMP_pressure;BME280_temperature;BME280_humidity;BME280_pressure;Samples;Min_cycle;Max_cycle;Signal;HPM_P1;HPM_P2
2023/11/27 00:00:36;;;;;;;4.70;2.90;;;;;;;3.56;100.00;95963.28;5077355;28;20226;-69
2023/11/27 00:03:03;;;;;;;4.80;2.40;;;;;;;3.45;100.00;95970.44;5076605;28;20327;-69
2023/11/27 00:05:29;;;;;;;4.97;2.50;;;;;;;3.58;100.00;95965.72;5077019;28;20202;-69
2023/11/27 00:07:56;;;;;;;4.30;2.47;;;;;;;3.62;100.00;95960.91;5075518;28;20233;-69
2023/11/27 00:10:22;;;;;;;3.90;2.30;;;;;;;3.61;100.00;95961.06;5077504;28;20230;-69
2023/11/27 00:12:49;;;;;;;5.13;2.53;;;;;;;3.51;100.00;95962.06;5075854;28;20205;-69
2023/11/27 00:15:16;;;;;;;6.30;3.37;;;;;;;3.42;100.00;95961.09;5077184;28;20213;-69
2023/11/27 00:17:44;;;;;;;3.93;2.77;;;;;;;3.52;100.00;95955.91;5076483;28;20209;-69
2023/11/27 00:20:12;;;;;;;5.27;2.40;;;;;;;3.50;100.00;95952.59;5077283;28;20222;-69
2023/11/27 00:22:38;;;;;;;6.90;2.63;;;;;;;3.25;100.00;95948.00;5075625;28;20227;-69
2023/11/27 00:25:07;;;;;;;4.77;2.40;;;;;;;3.50;100.00;95952.59;5076924;28;20199;-69
2023/11/27 00:27:33;;;;;;;4.57;2.60;;;;;;;3.44;100.00;95950.56;5076327;28;20207;-69
2023/11/27 00:30:00;;;;;;;8.80;3.07;;;;;;;3.42;100.00;95952.50;5076225;28;20220;-69
2023/11/27 00:32:27;;;;;;;6.10;2.83;;;;;;;3.41;100.00;95949.06;5076115;28;20198;-69
2023/11/27 00:34:55;;;;;;;3.67;1.90;;;;;;;3.62;100.00;95937.47;5078031;28;20198;-69
2023/11/27 00:37:21;;;;;;;4.80;2.60;;;;;;;3.43;100.00;95939.31;5076563;28;20201;-69
2023/11/27 00:39:50;;;;;;;5.00;2.43;;;;;;;3.43;100.00;95930.69;5075771;28;20234;-69
2023/11/27 00:42:17;;;;;;;4.17;2.40;;;;;;;3.58;100.00;95929.25;5076392;28;20222;-69
2023/11/27 00:44:44;;;;;;;4.80;2.47;;;;;;;3.46;100.00;95922.59;5076656;28;20238;-69
2023/11/27 00:47:11;;;;;;;4.33;2.40;;;;;;;3.57;100.00;95919.81;5075689;28;21093;-68
2023/11/27 00:49:37;;;;;;;7.40;2.93;;;;;;;3.60;100.00;95925.56;5076248;28;20227;-69
2023/11/27 00:52:06;;;;;;;6.30;2.43;;;;;;;3.82;100.00;95917.41;5076417;28;20203;-69
2023/11/27 00:54:33;;;;;;;5.33;2.70;;;;;;;3.65;100.00;95918.97;5076740;28;20584;-69
2023/11/27 00:57:00;;;;;;;4.53;2.80;;;;;;;3.73;100.00;95916.47;5075440;28;20203;-69
2023/11/27 00:59:27;;;;;;;6.07;2.57;;;;;;;3.72;100.00;95912.22;5076194;28;20280;-69
2023/11/27 01:01:53;;;;;;;7.70;3.50;;;;;;;3.70;100.00;95906.34;5075741;28;20231;-69
2023/11/27 01:04:20;;;;;;;6.63;2.43;;;;;;;3.53;100.00;95913.25;5076029;28;20205;-69
2023/11/27 01:06:51;;;;;;;4.03;2.47;;;;;;;3.74;100.00;95899.88;5075396;28;20210;-69
2023/11/27 01:09:21;;;;;;;7.63;2.83;;;;;;;3.65;100.00;95895.53;5075980;28;20762;-69
2023/11/27 01:11:47;;;;;;;4.37;2.83;;;;;;;3.47;100.00;95901.59;5075543;28;20206;-69
2023/11/27 01:14:15;;;;;;;5.60;2.50;;;;;;;3.36;100.00;95899.19;5075672;28;20813;-69
2023/11/27 01:16:42;;;;;;;4.27;2.53;;;;;;;3.53;100.00;95895.84;5076103;28;20220;-69
2023/11/27 01:19:08;;;;;;;4.87;2.50;;;;;;;3.49;100.00;95891.03;5075777;28;20228;-69
2023/11/27 01:21:35;;;;;;;4.77;2.37;;;;;;;3.47;100.00;95891.19;5075590;28;20233;-69
2023/11/27 01:24:02;;;;;;;4.47;2.63;;;;;;;3.42;100.00;95882.97;5076004;28;20199;-69
2023/11/27 01:26:30;;;;;;;7.33;2.60;;;;;;;3.51;100.00;95876.09;5075680;28;20666;-69
2023/11/27 01:28:57;;;;;;;4.90;2.70;;;;;;;3.22;100.00;95880.59;5075007;28;20236;-69
2023/11/27 01:31:23;;;;;;;5.67;2.73;;;;;;;3.46;100.00;95873.91;5076185;28;20210;-69
2023/11/27 01:33:51;;;;;;;7.17;3.17;;;;;;;3.48;100.00;95871.19;5075500;28;20317;-69
2023/11/27 01:36:18;;;;;;;5.40;3.37;;;;;;;3.35;100.00;95873.31;5075174;28;20669;-69
2023/11/27 01:38:45;;;;;;;9.17;2.87;;;;;;;3.47;100.00;95864.34;5075874;28;20935;-69
2023/11/27 01:41:11;;;;;;;4.03;2.10;;;;;;;3.53;100.00;95858.56;5076152;28;20199;-69
2023/11/27 01:43:40;;;;;;;7.73;2.87;;;;;;;3.53;100.00;95853.34;5075068;28;20232;-69
2023/11/27 01:46:21;;;;;;;4.10;2.50;;;;;;;3.86;100.00;95851.81;5075198;28;20270;-69
2023/11/27 01:48:48;;;;;;;4.87;2.50;;;;;;;3.69;100.00;95849.97;5075953;28;20233;-69
2023/11/27 01:51:15;;;;;;;5.00;3.00;;;;;;;3.74;100.00;95852.97;5075902;28;20203;-69
2023/11/27 01:53:42;;;;;;;4.00;2.00;;;;;;;3.72;100.00;95848.88;5074916;28;20201;-68
2023/11/27 01:56:09;;;;;;;5.53;2.37;;;;;;;3.77;100.00;95847.47;5074633;28;20667;-69
2023/11/27 01:58:36;;;;;;;4.77;2.40;;;;;;;3.56;100.00;95840.03;5078502;28;20331;-69
2023/11/27 02:01:04;;;;;;;10.77;2.40;;;;;;;3.70;100.00;95841.19;5079259;28;20209;-69
2023/11/27 02:03:31;;;;;;;7.40;3.33;;;;;;;3.68;100.00;95826.69;5079241;28;20223;-69
2023/11/27 02:05:57;;;;;;;7.13;3.03;;;;;;;3.59;100.00;95827.56;5078710;28;20267;-69
2023/11/27 02:08:24;;;;;;;6.17;2.67;;;;;;;3.51;100.00;95824.81;5079509;28;20222;-69
2023/11/27 02:10:52;;;;;;;4.13;2.47;;;;;;;3.66;100.00;95813.78;5079293;28;20385;-69
2023/11/27 02:13:19;;;;;;;5.97;2.30;;;;;;;3.71;100.00;95810.75;5079180;28;20734;-69
2023/11/27 02:15:45;;;;;;;4.63;2.67;;;;;;;3.71;100.00;95811.56;5078641;28;20210;-69
2023/11/27 02:18:14;;;;;;;10.07;2.90;;;;;;;3.77;100.00;95803.16;5079696;28;20228;-69
2023/11/27 02:20:40;;;;;;;4.83;2.37;;;;;;;3.62;100.00;95795.19;5078732;28;21157;-69
2023/11/27 02:23:08;;;;;;;7.40;2.17;;;;;;;3.68;100.00;95791.03;5078833;28;21170;-69
2023/11/27 02:25:35;;;;;;;3.20;2.27;;;;;;;3.71;100.00;95788.09;5078509;28;20234;-69
2023/11/27 02:28:02;;;;;;;6.90;2.40;;;;;;;3.49;100.00;95799.88;5078792;28;20779;-68
2023/11/27 02:30:28;;;;;;;4.17;2.53;;;;;;;3.51;100.00;95783.16;5079359;28;20218;-69
2023/11/27 02:32:55;;;;;;;4.13;2.40;;;;;;;3.47;100.00;95781.81;5078433;28;20221;-68
2023/11/27 02:35:22;;;;;;;5.70;2.70;;;;;;;3.38;100.00;95787.09;5079235;28;20217;-69
2023/11/27 02:37:48;;;;;;;5.07;2.70;;;;;;;3.52;100.00;95786.59;5078455;28;20317;-68
2023/11/27 02:40:16;;;;;;;2.80;1.87;;;;;;;3.62;100.00;95770.75;5078645;28;20203;-69
2023/11/27 02:42:44;;;;;;;3.70;1.87;;;;;;;3.62;100.00;95781.16;5078427;28;20250;-69
2023/11/27 02:45:11;;;;;;;4.13;2.43;;;;;;;3.38;100.00;95774.88;5079426;28;20206;-69
2023/11/27 02:47:37;;;;;;;4.57;1.93;;;;;;;3.49;100.00;95769.47;5077767;28;20213;-69
2023/11/27 02:50:05;;;;;;;4.23;2.57;;;;;;;3.61;100.00;95767.50;5078695;28;20206;-69
2023/11/27 02:52:31;;;;;;;4.00;2.20;;;;;;;3.49;100.00;95772.09;5079015;28;20210;-69
2023/11/27 02:54:58;;;;;;;7.20;2.33;;;;;;;3.44;100.00;95755.25;5078473;28;20208;-69
2023/11/27 02:57:25;;;;;;;3.60;2.10;;;;;;;3.50;100.00;95757.25;5077847;28;20256;-69
2023/11/27 02:59:53;;;;;;;3.90;2.30;;;;;;;3.52;100.00;95750.94;5079350;28;20210;-69
2023/11/27 03:02:20;;;;;;;7.90;2.60;;;;;;;3.54;100.00;95745.59;5078129;28;20230;-69
2023/11/27 03:04:47;;;;;;;7.53;2.77;;;;;;;3.46;100.00;95753.31;5077740;28;20210;-69
2023/11/27 03:07:13;;;;;;;5.97;2.20;;;;;;;3.44;100.00;95750.06;5075496;28;20202;-69
2023/11/27 03:09:40;;;;;;;5.67;2.13;;;;;;;3.59;100.00;95739.00;5079053;28;20226;-69
2023/11/27 03:12:08;;;;;;;4.50;2.50;;;;;;;3.66;100.00;95729.59;5077958;28;20202;-69
2023/11/27 03:14:34;;;;;;;5.83;2.77;;;;;;;3.59;100.00;95738.16;5078335;28;20294;-69
2023/11/27 03:17:02;;;;;;;4.53;2.43;;;;;;;3.38;100.00;95725.41;5077500;28;20200;-69
2023/11/27 03:19:28;;;;;;;4.83;2.90;;;;;;;3.47;100.00;95728.91;5078585;28;20234;-69
2023/11/27 03:21:55;;;;;;;5.23;3.07;;;;;;;3.53;100.00;95715.31;5077549;28;20638;-69
2023/11/27 03:24:21;;;;;;;4.93;2.63;;;;;;;3.38;100.00;95720.19;5078351;28;20208;-69
2023/11/27 03:26:48;;;;;;;4.53;2.67;;;;;;;3.48;100.00;95714.94;5076939;28;20214;-69
2023/11/27 03:29:16;;;;;;;5.10;2.50;;;;;;;3.49;100.00;95713.94;5077931;28;20223;-69
2023/11/27 03:31:42;;;;;;;4.60;2.63;;;;;;;3.42;100.00;95711.13;5077625;28;20202;-69
2023/11/27 03:34:10;;;;;;;5.97;3.20;;;;;;;3.68;100.00;95714.66;5078288;28;20229;-69
2023/11/27 03:36:36;;;;;;;6.33;2.67;;;;;;;3.45;100.00;95705.63;5077500;28;20210;-69
2023/11/27 03:39:03;;;;;;;4.77;2.67;;;;;;;3.55;100.00;95711.56;5077842;28;20226;-69
2023/11/27 03:41:30;;;;;;;7.10;3.10;;;;;;;3.57;100.00;95703.63;5078328;28;20295;-69
2023/11/27 03:43:56;;;;;;;5.63;2.80;;;;;;;3.47;100.00;95706.28;5076734;28;20261;-69
2023/11/27 03:46:23;;;;;;;4.97;2.73;;;;;;;3.51;100.00;95709.44;5077507;28;20222;-69
2023/11/27 03:48:50;;;;;;;5.40;3.63;;;;;;;3.54;100.00;95711.72;5077047;28;20226;-69
2023/11/27 03:51:18;;;;;;;5.03;2.87;;;;;;;3.57;100.00;95714.88;5077604;28;20214;-69
2023/11/27 03:53:45;;;;;;;7.50;3.23;;;;;;;3.49;100.00;95714.78;5077111;28;20213;-69
2023/11/27 03:56:11;;;;;;;5.53;3.10;;;;;;;3.34;100.00;95723.25;5077815;28;20203;-69
2023/11/27 03:58:38;;;;;;;8.17;3.40;;;;;;;3.26;100.00;95707.50;5077019;28;20610;-68
2023/11/27 04:01:05;;;;;;;5.33;3.00;;;;;;;3.22;100.00;95703.56;5077319;28;20212;-69
2023/11/27 04:03:31;;;;;;;5.73;3.00;;;;;;;3.28;100.00;95708.19;5077544;28;20228;-68
2023/11/27 04:05:58;;;;;;;5.07;3.50;;;;;;;3.29;100.00;95707.25;5075488;28;20202;-69
2023/11/27 04:08:26;;;;;;;5.03;2.67;;;;;;;3.32;100.00;95696.53;5077173;28;20313;-69
2023/11/27 04:10:54;;;;;;;5.60;3.30;;;;;;;3.27;100.00;95690.94;5077456;28;20221;-69
2023/11/27 04:13:21;;;;;;;5.60;3.00;;;;;;;3.21;100.00;95681.13;5077639;28;20850;-69
2023/11/27 04:15:47;;;;;;;12.17;3.23;;;;;;;3.28;100.00;95674.34;5076001;28;20209;-69
2023/11/27 04:18:14;;;;;;;5.40;2.70;;;;;;;3.28;100.00;95676.97;5077122;28;20222;-69
2023/11/27 04:20:40;;;;;;;4.63;2.93;;;;;;;3.33;100.00;95664.31;5077303;28;20201;-68
2023/11/27 04:23:07;;;;;;;8.07;3.37;;;;;;;3.20;100.00;95662.06;5076837;28;20230;-69
2023/11/27 04:25:34;;;;;;;6.20;2.90;;;;;;;3.40;100.00;95662.75;5077051;28;20850;-69
2023/11/27 04:28:01;;;;;;;5.43;3.23;;;;;;;3.22;100.00;95661.91;5076524;28;20246;-69
2023/11/27 04:30:28;;;;;;;6.30;3.37;;;;;;;3.18;100.00;95666.63;5076654;28;20221;-69
2023/11/27 04:32:55;;;;;;;5.13;2.87;;;;;;;3.29;100.00;95661.19;5076373;28;20202;-69
2023/11/27 04:35:23;;;;;;;6.03;3.03;;;;;;;3.20;100.00;95659.47;5076905;28;20858;-69
2023/11/27 04:37:49;;;;;;;5.27;2.73;;;;;;;3.34;100.00;95658.16;5076707;28;20240;-69
2023/11/27 04:40:16;;;;;;;5.13;2.93;;;;;;;3.16;100.00;95652.91;5076735;28;20213;-69
2023/11/27 04:42:44;;;;;;;4.83;3.13;;;;;;;3.39;100.00;95653.31;5076838;28;20235;-69
2023/11/27 04:45:10;;;;;;;5.67;3.00;;;;;;;3.28;100.00;95656.13;5076759;28;20690;-68
2023/11/27 04:47:37;;;;;;;4.83;2.87;;;;;;;3.28;100.00;95649.13;5075894;28;20688;-69
2023/11/27 04:50:04;;;;;;;4.50;2.73;;;;;;;3.35;100.00;95641.56;5075939;28;20205;-69
2023/11/27 04:52:30;;;;;;;6.63;3.10;;;;;;;3.46;100.00;95649.94;5076913;28;20232;-69
2023/11/27 04:54:57;;;;;;;3.93;2.80;;;;;;;3.43;100.00;95649.47;5076304;28;20211;-69
2023/11/27 04:57:24;;;;;;;9.10;3.43;;;;;;;3.50;100.00;95637.47;5076426;28;20206;-69
2023/11/27 04:59:52;;;;;;;6.20;2.87;;;;;;;3.60;100.00;95646.03;5076389;28;20237;-68
2023/11/27 05:02:18;;;;;;;5.57;2.43;;;;;;;3.55;100.00;95649.06;5076664;28;20207;-69
2023/11/27 05:04:45;;;;;;;4.67;2.70;;;;;;;3.52;100.00;95646.78;5076129;28;20234;-69
2023/11/27 05:07:12;;;;;;;4.83;2.50;;;;;;;3.46;100.00;95634.34;5075091;28;20674;-69
2023/11/27 05:09:39;;;;;;;3.57;2.27;;;;;;;3.26;100.00;95637.22;5076754;28;20227;-69
2023/11/27 05:12:07;;;;;;;4.50;2.83;;;;;;;3.42;100.00;95626.97;5075786;28;20206;-69
2023/11/27 05:14:33;;;;;;;5.03;2.90;;;;;;;3.47;100.00;95633.38;5076425;28;20211;-69
2023/11/27 05:17:01;;;;;;;3.80;2.40;;;;;;;3.61;100.00;95621.63;5075603;28;20211;-68
2023/11/27 05:19:30;;;;;;;4.80;2.73;;;;;;;3.43;100.00;95618.22;5076561;28;20288;-69
2023/11/27 05:21:56;;;;;;;4.37;2.67;;;;;;;3.43;100.00;95611.19;5076603;28;20206;-68
2023/11/27 05:24:23;;;;;;;5.03;2.70;;;;;;;3.51;100.00;95613.06;5076869;28;20224;-69
2023/11/27 05:26:49;;;;;;;5.47;2.80;;;;;;;3.47;100.00;95611.72;5074954;28;20303;-69
2023/11/27 05:29:16;;;;;;;4.20;2.67;;;;;;;3.50;100.00;95609.66;5076378;28;20231;-69
2023/11/27 05:31:42;;;;;;;5.53;2.70;;;;;;;3.52;100.00;95606.91;5075817;28;20206;-69
2023/11/27 05:34:10;;;;;;;5.00;2.80;;;;;;;3.62;100.00;95605.03;5075652;28;20224;-69
2023/11/27 05:36:37;;;;;;;4.67;2.57;;;;;;;3.44;100.00;95609.44;5075702;28;20205;-68
2023/11/27 05:39:05;;;;;;;3.93;2.40;;;;;;;3.41;100.00;95610.56;5076104;28;20246;-68
2023/11/27 05:41:32;;;;;;;6.30;2.70;;;;;;;3.34;100.00;95608.69;5075574;28;20206;-69
2023/11/27 05:43:58;;;;;;;4.30;2.23;;;;;;;3.29;100.00;95603.09;5074963;28;20238;-68
2023/11/27 05:46:25;;;;;;;5.13;2.40;;;;;;;3.24;100.00;95602.72;5075771;28;20274;-69
2023/11/27 05:48:51;;;;;;;4.10;2.27;;;;;;;3.31;100.00;95588.13;5074917;28;20222;-69
2023/11/27 05:51:19;;;;;;;5.27;2.73;;;;;;;3.29;100.00;95595.28;5075968;28;20206;-69
2023/11/27 05:53:46;;;;;;;8.37;2.70;;;;;;;3.10;100.00;95591.03;5075849;28;20201;-69
2023/11/27 05:56:12;;;;;;;4.00;2.53;;;;;;;3.07;100.00;95585.31;5075731;28;20216;-69
2023/11/27 05:58:39;;;;;;;7.23;3.23;;;;;;;3.07;100.00;95580.13;5075201;28;20571;-69
2023/11/27 06:01:06;;;;;;;3.50;2.13;;;;;;;3.18;100.00;95574.69;5075686;28;20207;-69
2023/11/27 06:03:36;;;;;;;7.97;3.57;;;;;;;3.14;100.00;95589.78;5075675;28;20226;-70
2023/11/27 06:06:07;;;;;;;7.83;3.60;;;;;;;3.20;100.00;95575.34;5074055;28;20688;-71
2023/11/27 06:08:34;;;;;;;8.07;2.77;;;;;;;3.29;100.00;95579.69;5075647;28;20710;-69
2023/11/27 06:11:03;;;;;;;4.67;2.90;;;;;;;3.25;100.00;95578.34;5075096;28;20218;-68
2023/11/27 06:13:30;;;;;;;8.03;3.17;;;;;;;3.28;100.00;95572.81;5075970;28;20902;-70
2023/11/27 06:15:56;;;;;;;12.43;3.80;;;;;;;3.21;100.00;95572.59;5073677;28;20218;-70
2023/11/27 06:18:23;;;;;;;6.47;3.57;;;;;;;3.27;100.00;95571.19;5076038;28;20257;-68
2023/11/27 06:20:49;;;;;;;5.20;2.83;;;;;;;3.21;100.00;95571.78;5075701;28;20577;-70
2023/11/27 06:23:16;;;;;;;7.40;3.07;;;;;;;3.14;100.00;95574.19;5074985;28;20229;-70
2023/11/27 06:25:44;;;;;;;15.90;5.37;;;;;;;3.33;100.00;95573.19;5076287;28;20203;-69
2023/11/27 06:28:13;;;;;;;22.90;8.23;;;;;;;3.24;100.00;95574.09;5074517;28;20226;-68
2023/11/27 06:30:39;;;;;;;95.20;23.67;;;;;;;3.17;100.00;95566.06;5075807;28;20253;-70
2023/11/27 06:33:06;;;;;;;33.40;11.30;;;;;;;3.10;100.00;95569.41;5074798;28;20205;-68
2023/11/27 06:35:33;;;;;;;25.47;7.13;;;;;;;2.98;100.00;95565.38;5076286;28;20288;-68
2023/11/27 06:37:59;;;;;;;24.87;7.37;;;;;;;3.11;100.00;95571.03;5074237;28;20236;-69
2023/11/27 06:40:25;;;;;;;20.10;6.20;;;;;;;3.18;100.00;95564.25;5076106;28;20209;-69
2023/11/27 06:42:55;;;;;;;6.37;3.17;;;;;;;3.22;100.00;95563.84;5074211;28;20207;-69
2023/11/27 06:45:22;;;;;;;9.20;4.10;;;;;;;3.08;100.00;95553.09;5079475;28;20203;-68
2023/11/27 06:47:48;;;;;;;5.73;3.33;;;;;;;2.95;100.00;95554.44;5078793;28;20237;-70
2023/11/27 06:50:17;;;;;;;5.50;2.50;;;;;;;2.99;100.00;95546.19;5078965;28;20247;-69
2023/11/27 06:52:43;;;;;;;6.73;2.97;;;;;;;2.84;100.00;95552.06;5079078;28;20295;-68
2023/11/27 06:55:10;;;;;;;5.53;2.10;;;;;;;3.02;100.00;95549.31;5078842;28;20202;-70
2023/11/27 06:57:37;;;;;;;6.03;2.53;;;;;;;3.11;100.00;95542.41;5078575;28;20250;-69
2023/11/27 07:00:10;;;;;;;6.50;2.80;;;;;;;3.27;100.00;95550.34;5077609;28;20205;-69
2023/11/27 07:02:36;;;;;;;8.23;3.50;;;;;;;3.18;100.00;95543.44;5077821;28;20216;-70
2023/11/27 07:05:05;;;;;;;9.13;3.53;;;;;;;3.16;100.00;95543.59;5077868;28;20236;-70
2023/11/27 07:07:31;;;;;;;8.50;3.47;;;;;;;3.15;100.00;95541.94;5078893;28;20206;-69
2023/11/27 07:09:58;;;;;;;10.63;4.57;;;;;;;3.12;100.00;95537.06;5077898;28;20275;-69
2023/11/27 07:12:24;;;;;;;24.00;5.17;;;;;;;3.27;100.00;95530.38;5075802;28;20259;-68
2023/11/27 07:14:51;;;;;;;19.83;4.57;;;;;;;3.27;100.00;95529.53;5077529;28;20209;-69
2023/11/27 07:17:20;;;;;;;8.47;3.20;;;;;;;3.34;100.00;95525.38;5077080;28;20673;-70
2023/11/27 07:19:47;;;;;;;13.20;3.87;;;;;;;3.28;100.00;95523.34;5077364;28;20229;-70
2023/11/27 07:22:13;;;;;;;5.40;2.90;;;;;;;3.31;100.00;95529.09;5078161;28;20475;-68
2023/11/27 07:24:40;;;;;;;6.80;2.40;;;;;;;3.28;100.00;95524.16;5077802;28;20602;-69
2023/11/27 07:27:06;;;;;;;5.97;3.00;;;;;;;3.38;100.00;95519.69;5076357;28;20206;-69
2023/11/27 07:29:33;;;;;;;7.90;2.80;;;;;;;3.47;100.00;95521.41;5078070;28;20319;-68
2023/11/27 07:32:00;;;;;;;5.23;2.53;;;;;;;3.58;100.00;95518.56;5077717;28;20203;-69
2023/11/27 07:34:28;;;;;;;8.23;2.70;;;;;;;3.66;100.00;95519.41;5077781;28;20205;-69
2023/11/27 07:36:55;;;;;;;5.13;2.00;;;;;;;3.28;100.00;95515.56;5076494;28;20214;-69
2023/11/27 07:39:22;;;;;;;6.80;2.63;;;;;;;3.56;100.00;95514.47;5077967;28;21228;-70
2023/11/27 07:41:48;;;;;;;6.30;2.90;;;;;;;3.56;100.00;95514.47;5077240;28;21042;-70
2023/11/27 07:44:16;;;;;;;10.97;2.57;;;;;;;3.63;100.00;95516.31;5076457;28;20218;-70
2023/11/27 07:46:42;;;;;;;14.47;3.27;;;;;;;3.80;100.00;95505.00;5076593;28;20207;-69
2023/11/27 07:49:10;;;;;;;6.73;2.40;;;;;;;3.82;100.00;95510.91;5077318;28;20229;-69
2023/11/27 07:51:38;;;;;;;6.33;2.40;;;;;;;3.81;100.00;95507.47;5077321;28;20213;-69
2023/11/27 07:54:05;;;;;;;12.30;2.93;;;;;;;3.47;100.00;95510.16;5077052;28;20203;-69
2023/11/27 07:56:32;;;;;;;7.10;3.20;;;;;;;3.58;100.00;95505.53;5075202;28;20211;-69
2023/11/27 07:59:00;;;;;;;8.43;3.13;;;;;;;3.60;100.00;95497.56;5076439;28;20385;-70
2023/11/27 08:01:26;;;;;;;9.57;3.17;;;;;;;3.73;100.00;95497.00;5075004;28;20203;-70
2023/11/27 08:03:53;;;;;;;11.43;3.50;;;;;;;3.52;100.00;95507.94;5076879;28;20227;-69
2023/11/27 08:06:20;;;;;;;7.47;3.17;;;;;;;3.32;100.00;95501.25;5074735;28;20209;-69
2023/11/27 08:08:48;;;;;;;6.60;3.03;;;;;;;3.74;100.00;95503.84;5077375;28;20280;-70
2023/11/27 08:11:14;;;;;;;5.77;3.13;;;;;;;3.59;100.00;95503.72;5075792;28;20206;-70
2023/11/27 08:13:43;;;;;;;9.33;3.03;;;;;;;3.87;100.00;95493.81;5076745;28;20591;-68
2023/11/27 08:16:10;;;;;;;3.77;2.27;;;;;;;3.41;100.00;95493.38;5075005;28;20212;-69
2023/11/27 08:18:38;;;;;;;3.47;2.07;;;;;;;3.36;100.00;95486.97;5076808;28;20227;-70
2023/11/27 08:21:06;;;;;;;4.47;2.20;;;;;;;3.70;100.00;95489.50;5075411;28;20590;-69
2023/11/27 08:23:34;;;;;;;6.07;2.53;;;;;;;3.78;100.00;95479.13;5076101;28;20241;-70
2023/11/27 08:26:03;;;;;;;3.37;2.30;;;;;;;3.79;100.00;95474.72;5074830;28;20210;-69
2023/11/27 08:28:30;;;;;;;4.47;2.47;;;;;;;3.71;100.00;95478.09;5074987;28;20644;-69
2023/11/27 08:30:57;;;;;;;4.80;2.57;;;;;;;3.44;100.00;95474.03;5075343;28;20206;-70
2023/11/27 08:33:25;;;;;;;6.20;2.87;;;;;;;3.36;100.00;95464.38;5075103;28;20202;-69
2023/11/27 08:35:52;;;;;;;6.07;2.73;;;;;;;3.46;100.00;95461.66;5075329;28;20209;-68
2023/11/27 08:38:18;;;;;;;4.07;2.07;;;;;;;3.46;100.00;95456.44;5074922;28;20249;-68
2023/11/27 08:40:45;;;;;;;3.83;2.20;;;;;;;3.62;100.00;95463.38;5076242;28;20212;-69
2023/11/27 08:43:13;;;;;;;8.33;2.47;;;;;;;3.55;100.00;95453.72;5075339;28;20203;-69
2023/11/27 08:45:39;;;;;;;5.23;2.73;;;;;;;3.87;100.00;95446.94;5075789;28;20229;-68
2023/11/27 08:48:06;;;;;;;8.20;3.07;;;;;;;3.70;100.00;95453.03;5075247;28;20571;-70
2023/11/27 08:50:35;;;;;;;4.63;2.03;;;;;;;3.78;100.00;95437.44;5077273;28;20573;-69
2023/11/27 08:53:05;;;;;;;6.50;2.23;;;;;;;3.85;100.00;95438.44;5076373;28;20211;-69
2023/11/27 08:55:31;;;;;;;10.27;3.63;;;;;;;3.70;100.00;95440.00;5076255;28;20226;-71
2023/11/27 08:58:00;;;;;;;11.43;4.13;;;;;;;3.91;100.00;95437.81;5076200;28;20238;-67
2023/11/27 09:00:29;;;;;;;7.87;3.63;;;;;;;4.09;100.00;95430.72;5073964;28;20209;-69
2023/11/27 09:02:56;;;;;;;18.57;5.47;;;;;;;4.23;100.00;95427.50;5073962;28;20207;-70
2023/11/27 09:05:24;;;;;;;14.23;5.00;;;;;;;4.14;100.00;95423.25;5073790;28;20237;-70
2023/11/27 09:07:53;;;;;;;5.47;3.07;;;;;;;4.20;100.00;95433.06;5072908;28;20589;-70
2023/11/27 09:10:20;;;;;;;8.27;3.20;;;;;;;4.05;100.00;95418.97;5073484;28;20253;-70
2023/11/27 09:12:47;;;;;;;11.00;3.27;;;;;;;4.03;100.00;95430.53;5074361;28;20217;-71
2023/11/27 09:15:13;;;;;;;17.07;4.00;;;;;;;4.31;100.00;95419.72;5073948;28;20816;-71
2023/11/27 09:17:41;;;;;;;3.30;2.27;;;;;;;4.09;100.00;95409.88;5073044;28;20202;-71
2023/11/27 09:20:10;;;;;;;9.70;3.00;;;;;;;4.15;100.00;95411.84;5074095;28;20550;-71
2023/11/27 09:22:36;;;;;;;6.23;2.60;;;;;;;4.38;100.00;95394.66;5073695;28;20211;-71
2023/11/27 09:25:08;;;;;;;4.93;2.57;;;;;;;4.26;100.00;95404.56;5073911;28;20579;-71
2023/11/27 09:27:35;;;;;;;2.80;1.20;;;;;;;4.94;100.00;95398.94;5072725;28;20377;-70
2023/11/27 09:30:02;;;;;;;4.60;2.25;;;;;;;4.62;100.00;95392.06;5072726;28;20432;-70
2023/11/27 09:32:29;;;;;;;4.97;2.10;;;;;;;4.72;100.00;95390.91;5074403;28;20224;-70
2023/11/27 09:34:58;;;;;;;3.40;1.90;;;;;;;4.95;100.00;95371.84;5073396;28;20248;-69
2023/11/27 09:37:25;;;;;;;3.53;1.90;;;;;;;4.42;100.00;95383.72;5073400;28;20199;-69
2023/11/27 09:39:53;;;;;;;3.67;2.40;;;;;;;4.57;100.00;95376.91;5074029;28;20227;-69
2023/11/27 09:42:20;;;;;;;3.17;2.13;;;;;;;4.40;100.00;95371.81;5073462;28;20213;-68
2023/11/27 09:44:46;;;;;;;3.13;1.80;;;;;;;4.49;100.00;95366.47;5074289;28;20226;-69
2023/11/27 09:47:13;;;;;;;4.73;2.00;;;;;;;4.72;100.00;95361.41;5069415;28;20349;-68
2023/11/27 09:49:46;;;;;;;8.43;3.60;;;;;;;4.97;100.00;95351.59;5071734;28;20226;-69
2023/11/27 09:52:19;;;;;;;3.77;2.40;;;;;;;5.07;100.00;95348.84;5070794;28;20252;-69
2023/11/27 09:54:48;;;;;;;4.00;2.43;;;;;;;5.10;100.00;95336.25;5071293;28;20286;-69
2023/11/27 09:57:16;;;;;;;5.53;2.40;;;;;;;5.04;100.00;95326.50;5071407;28;20200;-69
2023/11/27 09:59:43;;;;;;;4.87;2.30;;;;;;;4.98;100.00;95327.13;5071304;28;20234;-69
2023/11/27 10:02:10;;;;;;;4.90;2.30;;;;;;;4.92;100.00;95317.34;5072032;28;20688;-69
2023/11/27 10:04:37;;;;;;;3.70;2.27;;;;;;;5.03;100.00;95309.19;5073524;28;20254;-71
2023/11/27 10:07:06;;;;;;;3.80;2.03;;;;;;;4.59;100.00;95294.06;5071983;28;20192;-69
2023/11/27 10:09:35;;;;;;;4.40;2.27;;;;;;;5.00;100.00;95291.25;5073041;28;20238;-70
2023/11/27 10:12:01;;;;;;;4.17;1.83;;;;;;;5.02;100.00;95278.84;5072403;28;20203;-69
2023/11/27 10:14:29;;;;;;;4.47;2.07;;;;;;;5.11;100.00;95285.66;5073628;28;20216;-71
2023/11/27 10:16:58;;;;;;;3.50;2.23;;;;;;;4.94;100.00;95281.47;5072880;28;20253;-72
2023/11/27 10:19:26;;;;;;;2.70;1.87;;;;;;;5.39;100.00;95268.59;5075733;28;20640;-72
2023/11/27 10:21:56;;;;;;;4.63;2.30;;;;;;;5.40;100.00;95270.25;5076924;28;20298;-71
2023/11/27 10:24:22;;;;;;;5.13;3.00;;;;;;;5.34;100.00;95259.66;5076839;28;21023;-72
2023/11/27 10:26:50;;;;;;;6.47;2.00;;;;;;;5.70;100.00;95256.38;5076649;28;20200;-70
2023/11/27 10:29:25;;;;;;;9.93;1.97;;;;;;;5.41;100.00;95250.97;5075896;28;20226;-69
2023/11/27 10:31:54;;;;;;;10.13;2.30;;;;;;;5.62;100.00;95249.38;5076872;28;21141;-72
2023/11/27 10:34:22;;;;;;;4.27;2.37;;;;;;;5.16;100.00;95241.59;5076042;28;20196;-72
2023/11/27 10:36:56;;;;;;;3.10;1.70;;;;;;;5.46;100.00;95233.00;5076776;28;20204;-72
2023/11/27 10:39:25;;;;;;;3.97;2.00;;;;;;;5.22;100.00;95232.25;5077002;28;20227;-71
2023/11/27 10:41:55;;;;;;;3.27;2.03;;;;;;;5.49;100.00;95216.97;5076213;28;20698;-71
2023/11/27 10:44:24;;;;;;;4.93;2.03;;;;;;;5.06;100.00;95214.84;5076470;28;20200;-71
2023/11/27 10:46:53;;;;;;;3.03;1.70;;;;;;;5.33;100.00;95203.97;5077275;28;20640;-72
2023/11/27 10:49:24;;;;;;;4.57;2.03;;;;;;;5.28;100.00;95201.06;5076246;28;20567;-71
2023/11/27 10:51:53;;;;;;;4.20;2.00;;;;;;;5.34;100.00;95197.78;5077517;28;20691;-71
2023/11/27 10:54:22;;;;;;;4.43;2.10;;;;;;;5.20;100.00;95195.88;5077428;28;20214;-71
2023/11/27 10:56:48;;;;;;;5.87;2.07;;;;;;;5.22;100.00;95203.53;5075986;28;20200;-71
2023/11/27 10:59:18;;;;;;;3.70;2.17;;;;;;;5.27;100.00;95196.00;5076460;28;20287;-71
2023/11/27 11:01:46;;;;;;;4.40;1.90;;;;;;;5.33;100.00;95192.72;5077141;28;20686;-70
2023/11/27 11:04:23;;;;;;;5.67;2.40;;;;;;;5.11;100.00;95193.47;5076715;28;20208;-68
2023/11/27 11:06:55;;;;;;;5.20;2.27;;;;;;;5.53;100.00;95182.50;5077092;28;20203;-68
2023/11/27 11:09:25;;;;;;;3.70;1.97;;;;;;;5.32;100.00;95178.88;5076801;28;20230;-68
2023/11/27 11:11:55;;;;;;;5.90;2.33;;;;;;;5.26;100.00;95173.53;5076113;28;20716;-70
2023/11/27 11:14:26;;;;;;;3.83;2.00;;;;;;;5.44;100.00;95161.81;5075028;28;20214;-69
2023/11/27 11:17:05;;;;;;;4.17;2.07;;;;;;;5.45;100.00;95153.81;5074777;28;20200;-70
2023/11/27 11:19:36;;;;;;;4.20;2.23;;;;;;;5.38;100.00;95149.44;5076145;28;20223;-69
2023/11/27 11:22:16;;;;;;;3.37;2.27;;;;;;;5.56;100.00;95144.75;5075795;28;20208;-69
2023/11/27 11:24:52;;;;;;;5.10;2.10;;;;;;;5.78;100.00;95129.13;5075973;28;20212;-69
2023/11/27 11:27:30;;;;;;;3.13;1.80;;;;;;;6.07;100.00;95116.97;5075840;28;20196;-69
2023/11/27 11:29:59;;;;;;;4.63;2.00;;;;;;;5.40;100.00;95123.97;5075283;28;20204;-68
2023/11/27 11:32:28;;;;;;;6.80;2.53;;;;;;;5.47;100.00;95120.50;5076994;28;20211;-69